Time;durP1;ratioP1;P1;durP2;ratioP2;P2;SDS_P1;SDS_P2;PMS_P1;PMS_P2;Temp;Humidity;BMP_temperature;BMP_pressure;BME280_temperature;BME280_humidity;BME280_pressure;Samples;Min_cycle;Max_cycle;Signal;HPM_P1;HPM_P2
2022/09/03 00:02:59;;;;;;;3.80;3.42;;;25.50;39.50;24.60;100973.00;;;;5083720;28;20031;-70
2022/09/03 00:05:55;;;;;;;3.10;2.90;;;25.60;39.50;24.60;100978.00;;;;5082424;28;20043;-69
2022/09/03 00:09:22;;;;;;;4.38;3.35;;;25.50;39.50;24.60;100981.00;;;;5081207;28;20497;-70
2022/09/03 00:12:22;;;;;;;3.85;3.33;;;25.50;39.50;24.60;100973.00;;;;5092034;28;20154;-69
2022/09/03 00:15:17;;;;;;;3.92;3.53;;;25.50;39.50;24.60;100972.00;;;;5092412;28;20315;-70
2022/09/03 00:18:14;;;;;;;3.92;3.53;;;25.50;39.60;24.60;100977.00;;;;5077374;28;20786;-70
2022/09/03 00:21:12;;;;;;;3.30;3.08;;;25.50;39.50;24.60;100980.00;;;;5087701;28;20043;-70
2022/09/03 00:23:59;;;;;;;3.97;3.67;;;25.50;39.40;24.60;100968.00;;;;5084536;28;20051;-69
2022/09/03 00:26:53;;;;;;;3.72;3.42;;;25.50;39.40;24.60;100962.00;;;;5075854;28;20086;-69
2022/09/03 00:29:48;;;;;;;3.70;3.22;;;25.50;39.30;24.60;100970.00;;;;5081660;28;20046;-69
2022/09/03 00:32:53;;;;;;;4.07;3.75;;;25.50;39.30;24.60;100962.00;;;;5073931;28;20723;-70
2022/09/03 00:35:47;;;;;;;4.32;3.92;;;25.50;39.30;24.60;100964.00;;;;5066452;28;20110;-70
2022/09/03 00:38:33;;;;;;;3.95;3.60;;;25.40;39.20;24.60;100971.00;;;;5082359;28;20036;-70
2022/09/03 00:41:42;;;;;;;4.45;4.05;;;25.50;39.30;24.60;100973.00;;;;5086540;28;20512;-69
2022/09/03 00:44:50;;;;;;;4.10;3.80;;;25.50;39.30;24.60;100973.00;;;;5074865;28;20040;-70
2022/09/03 00:48:02;;;;;;;4.93;3.77;;;25.50;39.30;24.60;100964.00;;;;5096508;28;20036;-69
2022/09/03 00:51:08;;;;;;;4.35;3.95;;;25.50;39.20;24.60;100969.00;;;;5086166;28;20486;-70
2022/09/03 00:54:29;;;;;;;4.05;3.75;;;25.50;39.30;24.60;100974.00;;;;5075812;28;20119;-70
2022/09/03 00:57:46;;;;;;;4.38;3.97;;;25.50;39.20;24.60;100972.00;;;;5079750;28;20044;-69
2022/09/03 01:00:32;;;;;;;4.78;4.38;;;25.50;39.20;24.60;100966.00;;;;5079541;28;20489;-69
2022/09/03 01:03:53;;;;;;;4.03;3.70;;;25.50;39.30;24.60;100974.00;;;;5098666;28;20036;-70
2022/09/03 01:07:06;;;;;;;3.83;3.53;;;25.50;39.30;24.60;100967.00;;;;5094281;28;20036;-70
2022/09/03 01:10:11;;;;;;;4.55;4.10;;;25.50;39.40;24.60;100963.00;;;;5083897;28;20406;-69
2022/09/03 01:12:57;;;;;;;4.22;3.92;;;25.50;39.30;24.60;100966.00;;;;5085380;28;20111;-70
2022/09/03 01:15:56;;;;;;;4.43;4.05;;;25.50;39.30;24.60;100960.00;;;;5096709;28;20028;-70
2022/09/03 01:19:39;;;;;;;4.28;3.88;;;25.50;39.30;24.60;100968.00;;;;5099853;28;20046;-70
2022/09/03 01:22:49;;;;;;;4.25;3.85;;;25.50;39.30;24.60;100964.00;;;;5022160;28;20373;-69
2022/09/03 01:26:31;;;;;;;4.38;3.97;;;25.50;39.30;24.60;100972.00;;;;5092636;28;20063;-70
2022/09/03 01:29:27;;;;;;;3.92;3.63;;;25.50;39.30;24.60;100966.00;;;;5097838;28;20039;-69
2022/09/03 01:32:44;;;;;;;3.92;3.60;;;25.50;39.30;24.60;100969.00;;;;5075953;28;20522;-69
2022/09/03 01:35:45;;;;;;;4.00;3.70;;;25.50;39.30;24.60;100969.00;;;;5080606;28;20043;-70
2022/09/03 01:38:49;;;;;;;4.28;3.88;;;25.40;39.30;24.60;100965.00;;;;5072918;28;20043;-70
2022/09/03 01:42:24;;;;;;;4.32;3.92;;;25.40;39.40;24.60;100963.00;;;;5067749;28;20389;-69
2022/09/03 01:45:30;;;;;;;4.03;3.72;;;25.40;39.30;24.60;100969.00;;;;5063473;28;20055;-69
2022/09/03 01:48:42;;;;;;;4.13;3.72;;;25.40;39.30;24.60;100966.00;;;;5097030;28;20052;-70
2022/09/03 01:51:29;;;;;;;3.70;3.40;;;25.40;40.00;24.50;100968.00;;;;5094616;28;20035;-70
2022/09/03 01:55:05;;;;;;;3.97;3.67;;;25.40;39.40;24.60;100962.00;;;;5067735;27;20047;-69
2022/09/03 01:58:32;;;;;;;4.60;4.20;;;25.40;39.60;24.50;100967.00;;;;5056659;28;20118;-69
2022/09/03 02:01:26;;;;;;;3.90;3.60;;;25.40;39.50;24.50;100962.00;;;;5026091;28;20462;-70
2022/09/03 02:04:22;;;;;;;4.60;4.20;;;25.40;39.40;24.50;100968.00;;;;5069014;28;20043;-69
2022/09/03 02:07:08;;;;;;;4.45;4.15;;;25.40;39.40;24.50;100973.00;;;;5078238;28;20117;-70
2022/09/03 02:09:54;;;;;;;4.05;3.65;;;25.40;39.30;24.50;100977.00;;;;5083965;28;20035;-69
2022/09/03 02:12:42;;;;;;;4.28;3.90;;;25.40;39.40;24.60;100967.00;;;;5090059;28;20031;-69
2022/09/03 02:15:29;;;;;;;4.03;3.67;;;25.40;39.50;24.50;100969.00;;;;5063622;28;20538;-70
2022/09/03 02:18:25;;;;;;;4.10;3.72;;;25.40;39.50;24.50;100972.00;;;;5082428;27;20075;-70
2022/09/03 02:21:14;;;;;;;4.32;3.92;;;25.40;39.50;24.50;100968.00;;;;5076363;27;20059;-70
2022/09/03 02:24:02;;;;;;;3.78;3.47;;;25.30;39.40;24.50;100978.00;;;;5081463;28;20040;-70
2022/09/03 02:26:48;;;;;;;4.25;3.92;;;25.40;39.60;24.50;100978.00;;;;5079053;28;20517;-69
2022/09/03 02:29:35;;;;;;;3.88;3.28;;;25.40;39.50;24.50;100985.00;;;;5091052;28;20044;-70
2022/09/03 02:32:21;;;;;;;5.03;3.60;;;25.40;39.50;24.50;100978.00;;;;5082153;28;20040;-70
2022/09/03 02:35:07;;;;;;;4.20;3.85;;;25.30;39.40;24.50;100972.00;;;;5095636;28;20036;-70
2022/09/03 02:37:53;;;;;;;4.00;3.70;;;25.30;39.50;24.50;100972.00;;;;5095237;28;20043;-69
2022/09/03 02:40:39;;;;;;;3.60;3.30;;;25.30;39.50;24.50;100973.00;;;;5089907;28;20040;-70
2022/09/03 02:43:31;;;;;;;4.05;3.45;;;25.30;39.40;24.50;100965.00;;;;5097030;28;20043;-70
2022/09/03 02:46:22;;;;;;;3.45;3.22;;;25.30;39.50;24.50;100976.00;;;;5083801;28;20516;-69
2022/09/03 02:49:08;;;;;;;3.67;3.38;;;25.40;39.60;24.50;100973.00;;;;5072088;28;20539;-70
2022/09/03 02:52:05;;;;;;;3.10;2.80;;;25.30;39.50;24.50;100966.00;;;;5094489;28;20385;-69
2022/09/03 02:54:51;;;;;;;3.05;2.85;;;25.30;39.60;24.50;100965.00;;;;5073626;28;20091;-70
2022/09/03 02:57:37;;;;;;;3.50;3.20;;;25.30;39.60;24.50;100971.00;;;;5094375;28;20044;-69
2022/09/03 03:00:23;;;;;;;5.30;3.25;;;25.30;39.60;24.40;100972.00;;;;5082623;28;20036;-70
2022/09/03 03:03:09;;;;;;;3.40;3.10;;;25.20;39.60;24.40;100967.00;;;;5098675;28;20140;-70
2022/09/03 03:05:57;;;;;;;3.47;3.17;;;25.20;40.30;24.40;100973.00;;;;5096348;28;20035;-70
2022/09/03 03:08:43;;;;;;;2.97;2.78;;;25.20;39.70;24.40;100958.00;;;;5082146;28;20428;-70
2022/09/03 03:11:29;;;;;;;3.25;2.88;;;25.20;39.70;24.40;100961.00;;;;5097616;28;20039;-70
2022/09/03 03:14:16;;;;;;;3.20;3.00;;;25.20;39.70;24.40;100955.00;;;;5083620;28;20039;-69
2022/09/03 03:17:02;;;;;;;3.22;2.97;;;25.20;39.70;24.40;100957.00;;;;5088392;28;20517;-70
2022/09/03 03:19:49;;;;;;;3.25;2.95;;;25.20;39.80;24.40;100963.00;;;;5085173;28;20044;-70
2022/09/03 03:22:35;;;;;;;2.83;2.63;;;25.20;39.90;24.40;100952.00;;;;5092234;28;20071;-70
2022/09/03 03:25:21;;;;;;;3.30;3.00;;;25.20;40.70;24.40;100947.00;;;;5093261;28;20035;-70
2022/09/03 03:28:07;;;;;;;3.00;2.80;;;25.10;39.80;24.40;100950.00;;;;5095493;28;20040;-70
2022/09/03 03:30:53;;;;;;;3.03;2.83;;;25.10;39.80;24.30;100950.00;;;;5096560;28;22281;-70
2022/09/03 03:33:39;;;;;;;3.10;2.80;;;25.20;39.90;24.30;100946.00;;;;5091548;28;20040;-70
2022/09/03 03:36:28;;;;;;;2.80;2.60;;;25.10;39.80;24.30;100939.00;;;;5079370;28;20118;-70
2022/09/03 03:39:14;;;;;;;2.60;2.40;;;25.10;39.90;24.30;100948.00;;;;5084129;28;20481;-70
2022/09/03 03:42:00;;;;;;;2.30;2.10;;;25.10;39.90;24.30;100942.00;;;;5095604;28;20039;-70
2022/09/03 03:44:46;;;;;;;2.65;2.45;;;25.00;39.90;24.30;100946.00;;;;5088958;28;20079;-70
2022/09/03 03:47:32;;;;;;;2.72;2.47;;;25.00;39.90;24.30;100948.00;;;;5105880;27;20481;-70
2022/09/03 03:50:19;;;;;;;2.85;2.53;;;25.00;39.80;24.30;100952.00;;;;5106418;27;20631;-70
2022/09/03 03:53:05;;;;;;;2.40;2.20;;;25.00;39.80;24.30;100957.00;;;;5101528;27;20043;-71
2022/09/03 03:55:56;;;;;;;2.60;2.40;;;25.00;39.80;24.30;100941.00;;;;5088281;28;20044;-70
2022/09/03 03:58:42;;;;;;;2.55;2.35;;;25.00;39.90;24.30;100944.00;;;;5082891;27;20047;-70
2022/09/03 04:01:29;;;;;;;2.75;2.15;;;25.00;39.90;24.30;100948.00;;;;5074788;28;20045;-70
2022/09/03 04:04:15;;;;;;;2.50;2.20;;;25.00;39.90;24.30;100947.00;;;;5082072;28;20353;-69
2022/09/03 04:07:01;;;;;;;1.90;1.80;;;25.00;39.90;24.30;100940.00;;;;5102371;27;20232;-69
2022/09/03 04:09:48;;;;;;;2.75;2.10;;;25.00;39.90;24.20;100938.00;;;;5094656;27;20032;-69
2022/09/03 04:12:34;;;;;;;2.30;2.05;;;25.00;39.90;24.20;100934.00;;;;5097512;27;20546;-70
2022/09/03 04:15:20;;;;;;;3.03;1.92;;;25.00;39.90;24.20;100936.00;;;;5095726;28;20381;-70
2022/09/03 04:18:07;;;;;;;2.20;2.00;;;25.00;39.90;24.20;100940.00;;;;5099801;28;20040;-70
2022/09/03 04:20:57;;;;;;;2.22;2.05;;;25.00;39.90;24.20;100946.00;;;;5100721;28;20044;-70
2022/09/03 04:23:45;;;;;;;2.53;2.20;;;25.00;40.00;24.20;100943.00;;;;5093701;28;20044;-70
2022/09/03 04:26:31;;;;;;;2.30;2.10;;;24.90;39.90;24.20;100949.00;;;;5085822;27;20042;-71
2022/09/03 04:29:17;;;;;;;3.23;2.20;;;25.00;40.00;24.20;100947.00;;;;5097900;27;20082;-70
2022/09/03 04:35:08;;;;;;;2.95;2.15;;;25.00;40.00;24.20;100934.00;;;;5096285;27;20117;-65
2022/09/03 04:37:55;;;;;;;3.35;2.20;;;25.00;40.00;24.20;100934.00;;;;5092176;27;20048;-65
2022/09/03 04:40:41;;;;;;;2.22;2.03;;;25.00;40.10;24.20;100931.00;;;;5099710;28;20044;-64
2022/09/03 04:43:27;;;;;;;2.72;2.25;;;25.00;40.30;24.20;100941.00;;;;5098815;27;20465;-65
2022/09/03 04:46:14;;;;;;;2.15;2.05;;;25.00;40.30;24.20;100944.00;;;;5094691;28;20035;-64
2022/09/03 04:49:00;;;;;;;2.17;1.92;;;25.00;40.30;24.20;100944.00;;;;5077606;27;20032;-65
2022/09/03 04:51:46;;;;;;;2.33;2.17;;;25.00;40.30;24.20;100942.00;;;;5082814;27;20043;-65
2022/09/03 04:54:33;;;;;;;2.42;2.22;;;25.00;40.30;24.20;100946.00;;;;5097858;27;20115;-64
2022/09/03 04:57:19;;;;;;;2.33;2.13;;;25.00;40.20;24.20;100938.00;;;;5096099;27;20435;-64
2022/09/03 05:00:09;;;;;;;3.22;2.50;;;24.90;40.10;24.20;100941.00;;;;5100747;28;20561;-64
2022/09/03 05:02:55;;;;;;;2.55;2.35;;;25.00;40.20;24.20;100939.00;;;;5093528;28;20063;-64
2022/09/03 05:05:41;;;;;;;2.63;2.40;;;24.90;40.00;24.20;100947.00;;;;5102018;28;20040;-64
2022/09/03 05:08:27;;;;;;;2.58;2.38;;;25.00;40.00;24.20;100934.00;;;;5096320;28;20028;-65
2022/09/03 05:11:13;;;;;;;2.50;2.30;;;25.00;39.90;24.20;100935.00;;;;5095749;28;20086;-64
2022/09/03 05:13:59;;;;;;;2.28;2.05;;;25.00;40.00;24.20;100938.00;;;;5085472;28;20392;-64
2022/09/03 05:16:45;;;;;;;2.75;2.50;;;25.00;40.00;24.20;100933.00;;;;5090668;28;20443;-65
2022/09/03 05:19:33;;;;;;;2.65;2.45;;;25.00;39.90;24.20;100926.00;;;;5081493;28;20043;-65
2022/09/03 05:22:20;;;;;;;2.53;2.35;;;25.00;40.60;24.20;100927.00;;;;5097616;27;20036;-65
2022/09/03 05:25:06;;;;;;;2.88;2.67;;;25.00;39.90;24.20;100924.00;;;;5092384;27;20047;-65
2022/09/03 05:27:53;;;;;;;2.92;2.72;;;25.00;39.80;24.20;100917.00;;;;5095258;28;20567;-70
2022/09/03 05:30:39;;;;;;;3.47;3.00;;;25.00;39.90;24.20;100922.00;;;;5091732;28;20040;-70
2022/09/03 05:33:25;;;;;;;2.47;2.28;;;25.00;39.80;24.20;100926.00;;;;5102509;27;20039;-70
2022/09/03 05:36:13;;;;;;;4.30;2.80;;;25.00;39.80;24.20;100924.00;;;;5104908;27;20051;-69
2022/09/03 05:38:59;;;;;;;3.30;2.70;;;24.90;39.90;24.20;100927.00;;;;5068222;28;20036;-70
2022/09/03 05:41:48;;;;;;;3.90;2.65;;;25.00;39.90;24.20;100928.00;;;;5102280;28;20042;-70
2022/09/03 05:44:35;;;;;;;3.30;2.60;;;25.00;39.90;24.20;100929.00;;;;5093750;28;20085;-71
2022/09/03 05:47:21;;;;;;;2.95;2.70;;;25.00;39.90;24.20;100932.00;;;;5083060;27;20039;-70
2022/09/03 05:50:09;;;;;;;3.40;2.90;;;25.00;39.90;24.20;100927.00;;;;5094143;28;20034;-70
2022/09/03 05:52:57;;;;;;;;;;;25.00;40.00;24.10;100930.00;;;;5097394;27;20040;-70
2022/09/03 05:55:43;;;;;;;2.85;2.65;;;25.00;40.00;24.20;100931.00;;;;5100679;27;19919;-70
2022/09/03 05:58:30;;;;;;;4.25;2.85;;;25.00;39.90;24.20;100930.00;;;;5091044;28;20028;-70
2022/09/03 06:01:28;;;;;;;3.17;2.60;;;25.00;40.00;24.10;100933.00;;;;5077929;27;20512;-70
2022/09/03 06:04:14;;;;;;;3.03;2.78;;;25.00;40.00;24.20;100939.00;;;;5099023;27;20127;-70
2022/09/03 06:07:00;;;;;;;3.08;2.83;;;25.00;40.10;24.10;100931.00;;;;5095076;27;20044;-72
2022/09/03 06:09:46;;;;;;;3.05;2.72;;;24.90;40.10;24.10;100929.00;;;;5101985;27;20031;-70
2022/09/03 06:12:32;;;;;;;3.38;2.95;;;25.00;40.10;24.20;100935.00;;;;5081716;27;20112;-70
2022/09/03 06:15:18;;;;;;;3.40;3.13;;;25.00;40.00;24.20;100935.00;;;;5087721;27;20038;-70
2022/09/03 06:18:12;;;;;;;3.90;3.45;;;25.00;39.60;24.20;100945.00;;;;5096261;27;20093;-69
2022/09/03 06:21:04;;;;;;;4.25;3.78;;;25.00;39.70;24.20;100937.00;;;;5099618;27;20309;-70
2022/09/03 06:23:52;;;;;;;4.32;3.50;;;25.00;39.60;24.20;100936.00;;;;5079411;28;20555;-71
2022/09/03 06:26:39;;;;;;;3.83;3.03;;;25.00;39.50;24.20;100939.00;;;;5068713;28;20059;-70
2022/09/03 06:29:25;;;;;;;4.93;3.00;;;25.00;39.50;24.20;100937.00;;;;5080351;28;20054;-70
2022/09/03 06:32:11;;;;;;;4.15;3.47;;;24.90;39.40;24.20;100938.00;;;;5095003;27;20106;-69
2022/09/03 06:34:58;;;;;;;3.10;2.80;;;25.00;39.60;24.20;100946.00;;;;5092964;27;20031;-69
2022/09/03 06:37:44;;;;;;;3.88;2.72;;;25.00;39.60;24.20;100943.00;;;;5094149;28;20040;-69
2022/09/03 06:40:30;;;;;;;2.95;2.75;;;25.00;39.60;24.20;100944.00;;;;5092164;27;20138;-69
2022/09/03 06:43:16;;;;;;;3.65;3.10;;;25.00;39.40;24.20;100944.00;;;;5101877;27;20043;-69
2022/09/03 06:46:10;;;;;;;3.38;3.08;;;25.00;39.50;24.20;100949.00;;;;5097777;27;20162;-69
2022/09/03 06:48:56;;;;;;;6.25;2.88;;;25.00;39.50;24.20;100945.00;;;;5087466;28;20044;-69
2022/09/03 06:51:42;;;;;;;3.35;3.05;;;25.00;39.40;24.20;100947.00;;;;5081046;27;20478;-69
2022/09/03 06:54:28;;;;;;;3.33;2.75;;;25.00;39.40;24.20;100944.00;;;;5097343;27;20039;-69
2022/09/03 06:57:15;;;;;;;2.67;2.47;;;25.00;39.30;24.20;100941.00;;;;5100669;27;20039;-69
2022/09/03 07:00:03;;;;;;;3.40;3.10;;;25.00;39.30;24.20;100949.00;;;;5097483;27;20044;-69
2022/09/03 07:02:57;;;;;;;3.10;2.80;;;25.00;39.30;24.20;100953.00;;;;5103890;27;20046;-69
2022/09/03 07:05:44;;;;;;;3.90;2.65;;;25.00;39.50;24.20;100949.00;;;;5088186;27;20560;-69
2022/09/03 07:08:32;;;;;;;2.77;2.57;;;25.00;39.40;24.20;100953.00;;;;5097397;27;20491;-69
2022/09/03 07:11:21;;;;;;;;;;;25.00;39.30;24.20;100940.00;;;;5097935;28;20039;-69
2022/09/03 07:14:07;;;;;;;2.80;2.30;;;25.10;39.50;24.20;100948.00;;;;5101185;27;20353;-69
2022/09/03 07:16:53;;;;;;;4.25;2.50;;;25.10;39.30;24.20;100946.00;;;;5105699;28;20473;-69
2022/09/03 07:19:39;;;;;;;3.08;2.65;;;25.10;39.20;24.20;100951.00;;;;5093603;28;20040;-69
2022/09/03 07:22:25;;;;;;;3.53;2.55;;;25.10;39.30;24.20;100948.00;;;;5096059;28;20038;-69
2022/09/03 07:25:11;;;;;;;2.88;2.33;;;25.10;39.20;24.20;100949.00;;;;5096001;28;20032;-69
2022/09/03 07:27:58;;;;;;;2.55;2.35;;;25.10;39.20;24.20;100948.00;;;;5095628;28;20439;-69
2022/09/03 07:30:44;;;;;;;4.28;2.75;;;25.10;39.40;24.20;100945.00;;;;5095724;28;20477;-69
2022/09/03 07:33:33;;;;;;;3.28;2.70;;;25.10;39.20;24.30;100948.00;;;;5095234;28;20043;-69
2022/09/03 07:36:19;;;;;;;2.70;2.50;;;25.10;39.30;24.30;100939.00;;;;5087524;28;20046;-69
2022/09/03 07:39:05;;;;;;;2.40;2.20;;;25.10;39.40;24.30;100937.00;;;;5095221;28;20396;-69
2022/09/03 07:41:51;;;;;;;3.05;2.58;;;25.10;39.20;24.30;100936.00;;;;5095780;28;20048;-69
2022/09/03 07:44:37;;;;;;;2.47;2.28;;;25.10;39.30;24.30;100938.00;;;;5082009;28;20032;-69
2022/09/03 07:47:24;;;;;;;2.53;2.33;;;25.10;39.10;24.30;100946.00;;;;5083610;28;20093;-68
2022/09/03 07:50:11;;;;;;;2.70;2.50;;;25.10;39.10;24.30;100932.00;;;;5095420;28;20056;-69
2022/09/03 07:52:57;;;;;;;2.15;2.03;;;25.10;39.10;24.30;100934.00;;;;5093083;28;20094;-69
2022/09/03 07:55:44;;;;;;;2.47;2.27;;;25.20;39.20;24.30;100933.00;;;;5093323;28;20047;-68
2022/09/03 07:58:31;;;;;;;2.55;2.22;;;25.20;39.20;24.30;100934.00;;;;5094419;28;20040;-69
2022/09/03 08:01:19;;;;;;;3.35;2.40;;;25.20;39.20;24.30;100934.00;;;;5067783;28;20052;-69
2022/09/03 08:04:05;;;;;;;2.03;1.88;;;25.10;39.10;24.30;100942.00;;;;5095531;28;20185;-69
2022/09/03 08:06:54;;;;;;;4.90;2.40;;;25.20;39.00;24.30;100932.00;;;;5079828;28;20076;-69
2022/09/03 08:09:40;;;;;;;4.75;2.40;;;25.20;39.10;24.30;100936.00;;;;5092894;28;20046;-69
2022/09/03 08:12:26;;;;;;;3.20;2.58;;;25.20;39.20;24.30;100933.00;;;;5097722;28;20245;-69
2022/09/03 08:15:12;;;;;;;4.03;2.30;;;25.20;39.20;24.30;100934.00;;;;5097886;28;20149;-69
2022/09/03 08:17:59;;;;;;;2.40;2.13;;;25.20;39.20;24.30;100936.00;;;;5094744;28;20067;-69
2022/09/03 08:20:46;;;;;;;2.30;1.97;;;25.20;39.20;24.30;100936.00;;;;5100162;28;20046;-69
2022/09/03 08:23:36;;;;;;;3.25;2.35;;;25.20;39.10;24.30;100937.00;;;;5097256;27;20105;-70
2022/09/03 08:26:22;;;;;;;4.38;2.15;;;25.20;39.00;24.30;100936.00;;;;5095497;27;20074;-68
2022/09/03 08:29:08;;;;;;;2.22;1.88;;;25.20;39.20;24.30;100930.00;;;;5099685;27;20043;-64
2022/09/03 08:31:54;;;;;;;3.35;2.72;;;25.20;39.10;24.30;100928.00;;;;5098588;28;20040;-64
2022/09/03 08:34:40;;;;;;;2.50;2.22;;;25.20;39.10;24.30;100933.00;;;;5102993;27;20202;-64
2022/09/03 08:37:27;;;;;;;4.30;2.20;;;25.20;39.10;24.30;100940.00;;;;5099461;27;20035;-64
2022/09/03 08:40:14;;;;;;;2.30;2.10;;;25.20;39.20;24.30;100936.00;;;;5095537;27;20043;-64
2022/09/03 08:43:16;;;;;;;1.88;1.77;;;25.20;40.00;24.30;100939.00;;;;5075814;28;20494;-64
2022/09/03 08:46:02;;;;;;;3.55;1.73;;;25.10;39.10;24.30;100936.00;;;;5085615;28;20102;-65
2022/09/03 08:48:48;;;;;;;2.03;1.73;;;25.20;39.20;24.30;100932.00;;;;5070893;27;20040;-65
2022/09/03 08:51:39;;;;;;;2.75;1.67;;;25.20;39.10;24.30;100933.00;;;;5097040;27;20081;-66
2022/09/03 08:54:28;;;;;;;1.95;1.65;;;25.30;39.20;24.30;100930.00;;;;5055968;28;20109;-66
2022/09/03 08:57:14;;;;;;;2.95;1.60;;;25.20;39.10;24.30;100934.00;;;;5078846;27;20043;-71
2022/09/03 09:00:00;;;;;;;2.72;1.70;;;25.20;39.10;24.30;100929.00;;;;5080048;27;20058;-64
2022/09/03 09:03:34;;;;;;;2.15;1.50;;;25.20;39.20;24.30;100923.00;;;;5087842;28;20070;-63
2022/09/03 09:06:30;;;;;;;1.52;1.42;;;25.20;39.20;24.30;100923.00;;;;5055618;28;20044;-63
2022/09/03 09:09:43;;;;;;;1.60;1.50;;;25.20;39.20;24.30;100924.00;;;;5082313;28;20130;-63
2022/09/03 09:12:44;;;;;;;1.80;1.60;;;25.20;39.10;24.30;100927.00;;;;5074860;27;20066;-64
2022/09/03 09:16:05;;;;;;;1.30;1.23;;;25.20;39.10;24.30;100921.00;;;;5080873;27;20078;-63
2022/09/03 09:19:12;;;;;;;2.25;1.67;;;25.20;39.00;24.30;100924.00;;;;5070145;28;20043;-64
2022/09/03 09:22:01;;;;;;;1.55;1.45;;;25.30;39.30;24.30;100922.00;;;;5062386;28;20474;-63
2022/09/03 09:24:47;;;;;;;2.22;1.35;;;25.20;39.20;24.30;100924.00;;;;5086520;27;20039;-63
2022/09/03 09:27:33;;;;;;;2.88;1.60;;;25.20;39.20;24.30;100922.00;;;;5089787;28;20035;-63
2022/09/03 09:30:19;;;;;;;2.38;1.48;;;25.20;39.20;24.30;100918.00;;;;5095918;27;20091;-63
2022/09/03 09:33:06;;;;;;;2.40;1.60;;;25.20;39.20;24.30;100912.00;;;;5096889;27;20462;-65
2022/09/03 09:35:52;;;;;;;1.45;1.33;;;25.20;39.20;24.30;100913.00;;;;5093757;28;20046;-64
2022/09/03 09:38:38;;;;;;;2.78;1.50;;;25.20;39.20;24.30;100913.00;;;;5093656;28;20126;-63
2022/09/03 09:41:24;;;;;;;1.60;1.13;;;25.20;39.20;24.30;100920.00;;;;5100327;28;20039;-72
2022/09/03 09:44:19;;;;;;;3.35;1.50;;;25.20;39.10;24.30;100908.00;;;;5101981;27;20312;-63
2022/09/03 09:47:12;;;;;;;1.50;1.40;;;25.20;39.10;24.30;100902.00;;;;5107530;27;20048;-64
2022/09/03 09:50:01;;;;;;;1.42;1.25;;;25.10;39.10;24.30;100900.00;;;;5082182;28;20405;-63
2022/09/03 09:52:47;;;;;;;1.42;1.33;;;25.20;39.20;24.30;100905.00;;;;5083142;28;20086;-65
2022/09/03 09:55:33;;;;;;;2.08;1.88;;;25.20;39.20;24.30;100907.00;;;;5095182;28;20055;-63
2022/09/03 09:58:22;;;;;;;1.63;1.45;;;25.20;39.30;24.30;100906.00;;;;5094854;28;20044;-63
2022/09/03 10:01:20;;;;;;;1.05;1.05;;;25.20;39.10;24.30;100900.00;;;;5104351;27;20047;-63
2022/09/03 10:04:23;;;;;;;1.67;1.58;;;25.20;39.20;24.30;100899.00;;;;5086337;27;20048;-66
2022/09/03 10:07:29;;;;;;;3.92;1.65;;;25.20;39.10;24.30;100889.00;;;;5079821;28;20097;-66
2022/09/03 10:10:19;;;;;;;1.40;1.30;;;25.20;39.20;24.30;100895.00;;;;5084238;28;20035;-66
2022/09/03 10:13:11;;;;;;;3.13;1.30;;;25.20;39.20;24.30;100900.00;;;;5069638;28;20086;-66
2022/09/03 10:16:30;;;;;;;1.58;1.48;;;25.30;39.30;24.30;100897.00;;;;5096869;28;20036;-65
2022/09/03 10:19:29;;;;;;;;;;;25.20;39.20;24.30;100892.00;;;;5091811;28;20552;-66
2022/09/03 10:22:18;;;;;;;2.53;1.60;;;25.20;39.20;24.30;100886.00;;;;5077446;28;19912;-66
2022/09/03 10:25:04;;;;;;;2.40;2.17;;;25.20;39.00;24.30;100889.00;;;;5103531;27;20050;-66
2022/09/03 10:27:53;;;;;;;1.52;1.42;;;25.30;39.20;24.30;100887.00;;;;5077605;27;20172;-66
2022/09/03 10:31:16;;;;;;;2.63;1.38;;;25.30;39.20;24.30;100885.00;;;;5085172;28;20067;-66
2022/09/03 10:34:21;;;;;;;1.35;1.25;;;25.20;39.30;24.30;100889.00;;;;5089917;27;20122;-66
2022/09/03 10:37:39;;;;;;;2.92;1.60;;;25.20;39.10;24.30;100885.00;;;;5078066;27;20043;-66
2022/09/03 10:40:55;;;;;;;1.58;1.48;;;25.20;39.10;24.30;100886.00;;;;5090921;27;20058;-66
2022/09/03 10:44:00;;;;;;;1.40;1.30;;;25.20;39.10;24.30;100875.00;;;;5082809;28;20400;-67
2022/09/03 10:46:58;;;;;;;2.20;1.40;;;25.20;39.20;24.30;100882.00;;;;5081208;28;20044;-66
2022/09/03 10:50:13;;;;;;;2.50;1.40;;;25.30;39.30;24.30;100886.00;;;;5097168;28;20067;-66
2022/09/03 10:53:57;;;;;;;1.60;1.40;;;25.30;39.30;24.30;100878.00;;;;5086513;28;20039;-66
2022/09/03 10:57:18;;;;;;;1.83;1.35;;;25.30;39.20;24.30;100884.00;;;;4997537;28;20149;-66
2022/09/03 11:00:14;;;;;;;2.05;1.58;;;25.30;39.30;24.30;100874.00;;;;5007892;28;20049;-67
2022/09/03 11:03:45;;;;;;;1.63;1.50;;;25.30;39.20;24.30;100877.00;;;;5093565;28;20039;-67
2022/09/03 11:06:41;;;;;;;1.63;1.45;;;25.30;39.20;24.30;100870.00;;;;5079022;28;20369;-67
2022/09/03 11:09:36;;;;;;;1.83;1.30;;;25.30;39.20;24.30;100872.00;;;;5079400;28;20093;-66
2022/09/03 11:12:39;;;;;;;3.38;1.50;;;25.30;39.20;24.40;100871.00;;;;5075003;28;20036;-67
2022/09/03 11:15:54;;;;;;;1.73;1.40;;;25.30;39.10;24.40;100876.00;;;;5069165;28;20043;-67
2022/09/03 11:18:52;;;;;;;1.65;1.15;;;25.30;39.10;24.40;100871.00;;;;5083450;28;20043;-66
2022/09/03 11:21:40;;;;;;;1.33;1.23;;;25.30;39.10;24.40;100869.00;;;;5076969;28;20088;-66
2022/09/03 11:24:27;;;;;;;1.60;1.48;;;25.40;39.30;24.40;100866.00;;;;5080543;28;20143;-67
2022/09/03 11:27:21;;;;;;;2.10;1.10;;;25.40;39.30;24.40;100862.00;;;;5081097;28;20143;-66
2022/09/03 11:30:53;;;;;;;1.27;1.17;;;25.40;39.20;24.40;100864.00;;;;5081903;28;20040;-67
2022/09/03 11:34:01;;;;;;;1.67;1.38;;;25.40;39.10;24.40;100857.00;;;;5102202;28;20058;-66
2022/09/03 11:36:47;;;;;;;3.80;1.48;;;25.50;39.20;24.40;100863.00;;;;5106039;28;20444;-70
2022/09/03 11:39:35;;;;;;;2.80;1.60;;;25.50;39.30;24.40;100860.00;;;;5087386;28;20082;-71
2022/09/03 11:42:28;;;;;;;2.15;1.23;;;25.40;39.10;24.40;100856.00;;;;5076120;28;20474;-71
2022/09/03 11:45:23;;;;;;;1.33;1.23;;;25.50;39.20;24.40;100855.00;;;;5088673;28;20039;-66
2022/09/03 11:48:38;;;;;;;2.58;1.98;;;25.40;39.10;24.40;100851.00;;;;5091005;28;20099;-66
2022/09/03 11:51:24;;;;;;;3.15;1.38;;;25.40;39.00;24.40;100849.00;;;;5079063;28;20147;-69
2022/09/03 11:54:13;;;;;;;3.13;1.17;;;25.40;39.00;24.40;100856.00;;;;5102112;28;20101;-67
2022/09/03 11:57:15;;;;;;;1.50;1.30;;;25.50;39.20;24.50;100856.00;;;;5093405;28;20046;-67
2022/09/03 12:00:11;;;;;;;1.30;1.20;;;25.50;39.10;24.50;100854.00;;;;5069644;28;20093;-67
2022/09/03 12:03:02;;;;;;;1.27;0.93;;;25.50;39.10;24.50;100844.00;;;;5083382;28;20455;-67
2022/09/03 12:06:12;;;;;;;1.95;1.30;;;25.50;39.10;24.50;100838.00;;;;5071852;28;20061;-67
2022/09/03 12:09:19;;;;;;;1.90;1.23;;;25.50;39.20;24.50;100843.00;;;;5084416;28;20118;-67
2022/09/03 12:12:29;;;;;;;1.30;1.20;;;25.50;39.10;24.50;100835.00;;;;5077645;28;20063;-67
2022/09/03 12:15:49;;;;;;;1.27;1.17;;;25.50;39.10;24.50;100844.00;;;;5098185;27;20078;-67
2022/09/03 12:18:35;;;;;;;2.10;1.60;;;25.50;39.20;24.50;100837.00;;;;5079906;28;20442;-67
2022/09/03 12:21:22;;;;;;;1.30;1.20;;;25.60;39.10;24.50;100829.00;;;;5092294;27;20047;-67
2022/09/03 12:24:12;;;;;;;5.80;1.77;;;25.60;39.10;24.50;100838.00;;;;5093809;27;20031;-67
2022/09/03 12:26:59;;;;;;;1.80;1.15;;;25.60;39.10;24.50;100836.00;;;;5078072;28;20048;-67
2022/09/03 12:29:58;;;;;;;1.40;1.30;;;25.50;38.90;24.50;100844.00;;;;5089367;28;20039;-67
2022/09/03 12:32:46;;;;;;;1.35;1.20;;;25.60;39.00;24.50;100843.00;;;;5076703;27;20397;-67
2022/09/03 12:35:32;;;;;;;2.00;1.15;;;25.60;39.00;24.50;100832.00;;;;5102979;27;20034;-67
2022/09/03 12:38:24;;;;;;;1.23;1.13;;;25.60;39.10;24.50;100835.00;;;;5094399;27;20062;-67
2022/09/03 12:41:27;;;;;;;4.40;1.20;;;25.70;39.20;24.50;100829.00;;;;5108875;27;20138;-67
2022/09/03 12:44:13;;;;;;;0.90;0.90;;;25.60;39.00;24.50;100831.00;;;;5102937;27;20547;-67
2022/09/03 12:47:04;;;;;;;1.52;1.42;;;25.60;39.10;24.60;100817.00;;;;5104647;27;20054;-67